Time;durP1;ratioP1;P1;durP2;ratioP2;P2;SDS_P1;SDS_P2;PMS_P1;PMS_P2;Temp;Humidity;BMP_temperature;BMP_pressure;BME280_temperature;BME280_humidity;BME280_pressure;Samples;Min_cycle;Max_cycle;Signal;HPM_P1;HPM_P2
2022/08/06 00:01:52;;;;;;;2.60;0.98;;;;;;;14.15;62.40;102471.34;5002777;28;20029;-76
2022/08/06 00:04:19;;;;;;;2.50;1.00;;;;;;;14.10;62.58;102463.53;5005609;28;20080;-75
2022/08/06 00:06:45;;;;;;;2.85;1.10;;;;;;;14.03;61.97;102457.53;5006459;28;20029;-75
2022/08/06 00:09:11;;;;;;;3.33;1.10;;;;;;;14.01;62.92;102461.06;5004271;28;20034;-75
2022/08/06 00:11:38;;;;;;;2.95;1.10;;;;;;;13.98;62.41;102464.59;5003272;28;20034;-75
2022/08/06 00:14:03;;;;;;;4.68;1.10;;;;;;;13.91;62.45;102468.19;5003506;28;20038;-76
2022/08/06 00:16:28;;;;;;;4.43;1.23;;;;;;;13.88;62.75;102473.44;5001893;28;21882;-75
2022/08/06 00:18:54;;;;;;;4.28;1.15;;;;;;;13.84;63.05;102467.41;5022813;28;20152;-75
2022/08/06 00:21:19;;;;;;;2.78;1.33;;;;;;;13.81;63.11;102470.94;5003258;28;20056;-75
2022/08/06 00:23:45;;;;;;;2.70;1.10;;;;;;;13.81;62.64;102477.91;5002080;28;20079;-75
2022/08/06 00:26:10;;;;;;;1.85;1.08;;;;;;;13.80;63.12;102476.16;5004079;28;20030;-75
2022/08/06 00:28:35;;;;;;;6.10;1.40;;;;;;;13.81;63.13;102484.00;5002646;28;20063;-75
2022/08/06 00:31:03;;;;;;;5.72;1.50;;;;;;;13.86;62.13;102481.31;5006263;28;20441;-75
2022/08/06 00:33:28;;;;;;;3.67;1.52;;;;;;;13.85;62.10;102489.19;5001563;28;20032;-75
2022/08/06 00:35:53;;;;;;;3.28;1.60;;;;;;;13.81;62.49;102486.63;5003544;28;20042;-75
2022/08/06 00:38:19;;;;;;;5.88;2.55;;;;;;;13.81;62.76;102491.88;5005011;28;20071;-75
2022/08/06 00:40:44;;;;;;;4.47;2.78;;;;;;;13.83;62.67;102493.59;5004583;28;20060;-75
2022/08/06 00:43:09;;;;;;;7.38;2.13;;;;;;;13.81;63.08;102491.88;5004940;28;20484;-75
2022/08/06 00:45:35;;;;;;;4.60;1.95;;;;;;;13.84;62.08;102498.78;5004027;28;20022;-75
2022/08/06 00:48:01;;;;;;;5.20;2.10;;;;;;;13.81;62.04;102488.38;5007316;28;20487;-75
2022/08/06 00:50:27;;;;;;;4.07;1.88;;;;;;;13.77;63.13;102492.78;5000067;28;20293;-75
2022/08/06 00:52:53;;;;;;;5.35;1.77;;;;;;;13.74;63.33;102492.81;5005673;28;20592;-74
2022/08/06 00:55:19;;;;;;;4.05;1.90;;;;;;;13.74;63.37;102497.19;5008330;28;20033;-75
2022/08/06 00:57:45;;;;;;;6.28;1.90;;;;;;;13.73;63.49;102501.53;5007612;28;20033;-75
2022/08/06 01:00:11;;;;;;;5.25;1.90;;;;;;;13.72;63.65;102499.81;5001784;28;20043;-75
2022/08/06 01:02:36;;;;;;;4.68;1.80;;;;;;;13.72;63.40;102507.66;5010814;28;20137;-75
2022/08/06 01:05:01;;;;;;;3.78;1.80;;;;;;;13.72;63.82;102505.03;5011385;28;20038;-75
2022/08/06 01:07:26;;;;;;;5.32;1.77;;;;;;;13.72;62.71;102499.81;5011078;28;21514;-75
2022/08/06 01:09:52;;;;;;;4.13;1.80;;;;;;;13.68;63.32;102507.72;5006234;28;20040;-75
2022/08/06 01:12:17;;;;;;;2.72;1.55;;;;;;;13.67;63.92;102512.06;5007050;28;20069;-75
2022/08/06 01:14:43;;;;;;;5.97;1.88;;;;;;;13.66;63.65;102513.81;5009571;28;20030;-75
2022/08/06 01:17:19;;;;;;;6.70;1.85;;;;;;;13.67;63.12;102517.28;5012316;28;20045;-75
2022/08/06 01:19:56;;;;;;;3.75;1.52;;;;;;;13.64;63.43;102522.59;5008622;28;20449;-74
2022/08/06 01:22:54;;;;;;;3.88;1.90;;;;;;;13.64;62.70;102522.59;5009486;28;20065;-75
2022/08/06 01:25:41;;;;;;;4.68;1.90;;;;;;;13.61;62.59;102528.69;5007252;28;20041;-75
2022/08/06 01:28:11;;;;;;;7.72;1.92;;;;;;;13.54;64.13;102526.16;5006172;28;20500;-75
2022/08/06 01:30:46;;;;;;;6.77;2.20;;;;;;;13.50;63.93;102523.59;5010096;28;20037;-75
2022/08/06 01:33:23;;;;;;;5.65;2.38;;;;;;;13.48;64.15;102524.50;5010414;28;20308;-75
2022/08/06 01:35:54;;;;;;;4.78;1.92;;;;;;;13.46;64.91;102524.53;5011442;28;20050;-75
2022/08/06 01:38:29;;;;;;;5.72;2.03;;;;;;;13.43;63.58;102529.78;5005379;28;20041;-77
2022/08/06 01:40:58;;;;;;;5.72;1.95;;;;;;;13.34;64.52;102529.81;5006225;28;21023;-75
2022/08/06 01:43:26;;;;;;;6.80;1.90;;;;;;;13.31;65.11;102535.13;5002796;28;20491;-75
2022/08/06 01:45:53;;;;;;;4.20;2.08;;;;;;;13.32;65.18;102529.00;5007130;28;20111;-75
2022/08/06 01:48:25;;;;;;;6.10;2.20;;;;;;;13.31;64.80;102532.50;5011452;28;20029;-75
2022/08/06 01:50:54;;;;;;;6.05;2.17;;;;;;;13.30;64.90;102530.75;5007667;28;20180;-75
2022/08/06 01:53:27;;;;;;;6.03;2.30;;;;;;;13.30;64.03;102539.44;5009333;28;20025;-75
2022/08/06 01:55:56;;;;;;;6.45;2.20;;;;;;;13.28;63.84;102535.97;5010920;28;20038;-76
2022/08/06 01:58:29;;;;;;;5.30;2.17;;;;;;;13.24;64.21;102538.66;5008081;28;20030;-76
2022/08/06 02:00:55;;;;;;;6.70;2.20;;;;;;;13.18;64.33;102539.59;5004602;28;20185;-75
2022/08/06 02:03:28;;;;;;;7.25;2.10;;;;;;;13.14;64.25;102533.53;5007815;28;20034;-75
2022/08/06 02:05:56;;;;;;;5.70;1.98;;;;;;;13.07;65.34;102531.84;5008758;28;20037;-73
2022/08/06 02:08:25;;;;;;;4.45;2.10;;;;;;;13.01;64.42;102534.50;5009148;28;20053;-74
2022/08/06 02:10:53;;;;;;;4.70;1.83;;;;;;;12.93;65.13;102529.34;5002318;28;20105;-73
2022/08/06 02:13:20;;;;;;;4.82;2.00;;;;;;;12.83;65.79;102531.16;5006965;28;20038;-73
2022/08/06 02:15:46;;;;;;;2.85;1.65;;;;;;;12.75;66.15;102530.38;5008862;28;20036;-73
2022/08/06 02:18:15;;;;;;;3.55;1.90;;;;;;;12.71;65.74;102533.88;5008622;28;20030;-73
2022/08/06 02:20:45;;;;;;;5.20;1.85;;;;;;;12.69;66.08;102535.63;5008033;28;20053;-73
2022/08/06 02:23:15;;;;;;;3.25;1.88;;;;;;;12.68;66.28;102533.88;5013563;28;20022;-73
2022/08/06 02:25:43;;;;;;;3.90;2.00;;;;;;;12.67;66.55;102538.25;5007887;28;20063;-73
2022/08/06 02:28:11;;;;;;;4.18;1.80;;;;;;;12.64;66.34;102542.63;5002876;28;20057;-73
2022/08/06 02:30:40;;;;;;;4.53;1.80;;;;;;;12.56;66.27;102540.94;5009048;28;20456;-73
2022/08/06 02:33:07;;;;;;;4.70;2.05;;;;;;;12.50;66.62;102540.97;5005405;28;20045;-73
2022/08/06 02:35:39;;;;;;;6.60;2.05;;;;;;;12.46;66.87;102541.88;5008214;28;20061;-73
2022/08/06 02:38:11;;;;;;;5.63;2.00;;;;;;;12.41;67.01;102547.09;5003242;28;20030;-73
2022/08/06 02:40:42;;;;;;;3.88;2.13;;;;;;;12.38;67.29;102541.06;5005002;28;20473;-73
2022/08/06 02:43:16;;;;;;;5.35;2.15;;;;;;;12.37;67.33;102536.72;5002968;28;20031;-73
2022/08/06 02:45:55;;;;;;;5.05;1.75;;;;;;;12.34;66.38;102539.31;5004390;28;20034;-73
2022/08/06 02:48:27;;;;;;;4.35;2.20;;;;;;;12.28;66.53;102541.13;5002295;28;20029;-74
2022/08/06 02:50:57;;;;;;;6.50;2.20;;;;;;;12.20;67.27;102540.28;4999711;28;20057;-73
2022/08/06 02:53:34;;;;;;;6.75;2.50;;;;;;;12.16;67.17;102551.59;5005379;28;20033;-73
2022/08/06 02:56:12;;;;;;;5.20;2.10;;;;;;;12.17;66.34;102548.13;5006729;28;20032;-73
2022/08/06 02:58:46;;;;;;;4.55;1.70;;;;;;;12.16;66.27;102546.38;5005588;28;20037;-73
2022/08/06 03:01:15;;;;;;;4.10;2.10;;;;;;;12.15;66.94;102544.63;5004040;28;20032;-73
2022/08/06 03:03:44;;;;;;;4.82;2.20;;;;;;;12.11;67.25;102548.16;5004437;28;20469;-73
2022/08/06 03:06:14;;;;;;;5.65;2.28;;;;;;;12.09;66.78;102549.91;5004190;28;20033;-73
2022/08/06 03:08:40;;;;;;;4.57;1.90;;;;;;;12.05;67.09;102548.19;5003956;28;20030;-72
2022/08/06 03:11:07;;;;;;;4.30;2.17;;;;;;;11.98;67.75;102545.59;5004827;28;20032;-73
2022/08/06 03:13:34;;;;;;;5.30;2.10;;;;;;;11.96;68.03;102551.66;5004420;28;20029;-73
2022/08/06 03:16:00;;;;;;;6.40;2.30;;;;;;;11.95;67.82;102553.41;5007866;28;20021;-73
2022/08/06 03:18:27;;;;;;;3.95;1.95;;;;;;;11.98;66.67;102552.53;5004430;28;20030;-73
2022/08/06 03:20:53;;;;;;;4.93;2.17;;;;;;;11.95;66.62;102548.19;5002798;28;20492;-73
2022/08/06 03:23:20;;;;;;;3.42;2.00;;;;;;;11.94;66.69;102548.19;5000427;28;20033;-73
2022/08/06 03:25:47;;;;;;;4.55;1.98;;;;;;;11.86;67.06;102548.22;5004531;28;20057;-73
2022/08/06 03:28:14;;;;;;;6.80;2.17;;;;;;;11.78;67.78;102545.63;5000782;28;20104;-73
2022/08/06 03:30:40;;;;;;;5.85;2.10;;;;;;;11.67;68.17;102543.06;5004270;28;20033;-72
2022/08/06 03:33:16;;;;;;;5.10;2.30;;;;;;;11.67;68.00;102550.03;5002045;28;20026;-73
2022/08/06 03:35:42;;;;;;;4.53;2.05;;;;;;;11.65;68.00;102550.00;5001782;28;20873;-72
2022/08/06 03:38:09;;;;;;;4.07;2.08;;;;;;;11.64;67.92;102548.28;5004643;28;20120;-73
2022/08/06 03:40:37;;;;;;;4.05;2.17;;;;;;;11.61;67.86;102563.97;5005543;28;20487;-73
2022/08/06 03:43:03;;;;;;;4.80;2.20;;;;;;;11.61;68.02;102563.97;5006091;28;20115;-73
2022/08/06 03:45:30;;;;;;;4.65;2.20;;;;;;;11.57;68.21;102572.66;5003021;28;20083;-73
2022/08/06 03:47:57;;;;;;;3.35;2.00;;;;;;;11.50;68.85;102557.88;5006311;28;20385;-73
2022/08/06 03:50:29;;;;;;;6.13;1.83;;;;;;;11.50;68.87;102557.88;5000748;28;20029;-73
2022/08/06 03:53:00;;;;;;;3.72;1.88;;;;;;;11.52;69.57;102561.34;5002621;28;20499;-73
2022/08/06 03:55:30;;;;;;;3.20;1.70;;;;;;;11.50;67.97;102566.59;5005105;28;20030;-73
2022/08/06 03:57:59;;;;;;;2.88;1.48;;;;;;;11.47;68.16;102568.28;5002001;28;21128;-73
2022/08/06 04:00:28;;;;;;;2.95;1.40;;;;;;;11.44;68.18;102577.00;4999853;28;20033;-75
2022/08/06 04:02:55;;;;;;;2.50;1.40;;;;;;;11.39;68.09;102579.63;5006452;28;20037;-73
2022/08/06 04:05:23;;;;;;;5.65;2.03;;;;;;;11.35;69.16;102585.69;5002543;28;20044;-73
2022/08/06 04:07:52;;;;;;;5.22;2.08;;;;;;;11.34;69.28;102589.16;5007691;28;20026;-73
2022/08/06 04:10:19;;;;;;;3.65;2.58;;;;;;;11.32;68.91;102588.31;5012927;28;20048;-73
2022/08/06 04:12:45;;;;;;;4.90;3.20;;;;;;;11.30;69.17;102592.63;5017712;28;21819;-73
2022/08/06 04:15:12;;;;;;;7.35;3.50;;;;;;;11.27;69.13;102591.78;5002274;28;20039;-73
2022/08/06 04:17:39;;;;;;;8.52;3.25;;;;;;;11.26;69.41;102588.31;5001023;28;20040;-73
2022/08/06 04:20:06;;;;;;;8.20;3.63;;;;;;;11.24;69.33;102596.13;5006439;28;20030;-73
2022/08/06 04:22:33;;;;;;;7.57;3.25;;;;;;;11.24;69.79;102592.66;5009914;28;20029;-73
2022/08/06 04:24:58;;;;;;;8.10;3.70;;;;;;;11.24;69.88;102603.09;5002291;28;20025;-73
2022/08/06 04:27:25;;;;;;;6.72;3.63;;;;;;;11.25;70.10;102597.00;5003542;28;20040;-72
2022/08/06 04:29:53;;;;;;;7.85;4.03;;;;;;;11.26;69.79;102614.38;5000096;28;20030;-73
2022/08/06 04:32:21;;;;;;;6.63;3.08;;;;;;;11.26;69.90;102609.16;5006842;28;20030;-73
2022/08/06 04:34:48;;;;;;;7.72;3.53;;;;;;;11.27;70.16;102607.41;5001378;28;20037;-73
2022/08/06 04:37:14;;;;;;;7.05;3.40;;;;;;;11.25;69.68;102612.63;5009563;28;20057;-73
2022/08/06 04:39:39;;;;;;;5.63;3.15;;;;;;;11.25;70.19;102607.44;5006817;28;20144;-73
2022/08/06 04:42:05;;;;;;;8.75;3.00;;;;;;;11.28;70.31;102612.63;5005556;28;20120;-73
2022/08/06 04:44:30;;;;;;;5.95;2.95;;;;;;;11.29;70.24;102613.50;5008292;28;20111;-73
2022/08/06 04:46:57;;;;;;;7.05;2.95;;;;;;;11.30;70.53;102618.69;5011532;28;20075;-73
2022/08/06 04:49:22;;;;;;;5.75;3.00;;;;;;;11.28;70.20;102617.81;5007650;28;20037;-73
2022/08/06 04:51:48;;;;;;;6.53;2.78;;;;;;;11.26;70.18;102617.00;5005217;28;21123;-73
2022/08/06 04:54:15;;;;;;;6.80;2.63;;;;;;;11.26;70.69;102622.19;5008102;28;20096;-73
2022/08/06 04:56:41;;;;;;;8.60;3.08;;;;;;;11.27;70.65;102625.66;5007168;28;20029;-73
2022/08/06 04:59:06;;;;;;;5.40;2.63;;;;;;;11.30;70.10;102626.50;5002662;28;20038;-73
2022/08/06 05:01:32;;;;;;;6.85;2.70;;;;;;;11.33;70.31;102625.66;5009347;28;20374;-73
2022/08/06 05:03:57;;;;;;;6.28;2.75;;;;;;;11.36;70.32;102631.75;5017007;28;20033;-72
2022/08/06 05:07:07;;;;;;;5.35;2.75;;;;;;;11.41;69.75;102633.47;5011974;28;20550;-72
2022/08/06 05:09:32;;;;;;;4.32;2.53;;;;;;;11.44;70.62;102629.13;5025324;28;20522;-73
2022/08/06 05:12:11;;;;;;;5.25;2.60;;;;;;;11.48;70.37;102629.97;5007426;28;20045;-73
2022/08/06 05:14:52;;;;;;;6.03;2.50;;;;;;;11.54;69.96;102630.00;5011858;28;20065;-73
2022/08/06 05:17:20;;;;;;;7.72;2.83;;;;;;;11.59;70.89;102637.78;5016930;28;20033;-73
2022/08/06 05:19:59;;;;;;;6.78;2.42;;;;;;;11.65;70.38;102638.66;5016842;28;20026;-73
2022/08/06 05:22:27;;;;;;;6.80;2.40;;;;;;;11.73;70.53;102640.41;5012362;28;20041;-73
2022/08/06 05:24:53;;;;;;;5.60;2.67;;;;;;;11.77;71.28;102640.38;5012367;28;20025;-73
2022/08/06 05:27:18;;;;;;;7.68;2.80;;;;;;;11.82;71.11;102638.66;5013583;28;20029;-73
2022/08/06 05:29:44;;;;;;;4.95;2.80;;;;;;;11.90;71.51;102638.63;5010637;28;20034;-73
2022/08/06 05:32:09;;;;;;;6.05;2.60;;;;;;;11.97;71.45;102648.16;5014782;28;20340;-73
2022/08/06 05:34:35;;;;;;;6.00;2.60;;;;;;;12.05;72.08;102652.53;5011128;28;20583;-73
2022/08/06 05:37:00;;;;;;;5.65;2.50;;;;;;;12.09;71.92;102652.50;5012153;28;20073;-73
2022/08/06 05:39:25;;;;;;;9.43;2.80;;;;;;;12.14;72.27;102652.50;5011542;28;20028;-73
2022/08/06 05:41:51;;;;;;;7.47;2.97;;;;;;;12.22;72.55;102661.16;5014828;28;20049;-73
2022/08/06 05:44:16;;;;;;;4.07;2.70;;;;;;;12.29;72.61;102657.69;5012683;28;20037;-72
2022/08/06 05:46:49;;;;;;;5.13;2.67;;;;;;;12.39;72.59;102662.84;5013730;28;20021;-73
2022/08/06 05:49:44;;;;;;;4.90;2.53;;;;;;;12.48;71.97;102654.13;5008963;28;20058;-72
2022/08/06 05:52:31;;;;;;;7.55;2.95;;;;;;;12.58;71.75;102659.28;5010158;28;20030;-73
2022/08/06 05:55:11;;;;;;;6.20;2.65;;;;;;;12.65;72.76;102654.00;5009815;28;20033;-73
2022/08/06 05:57:41;;;;;;;6.55;2.72;;;;;;;12.72;73.40;102656.59;5008241;28;20429;-72
2022/08/06 06:00:12;;;;;;;4.15;2.63;;;;;;;12.77;73.22;102659.19;5008523;28;21733;-73
2022/08/06 06:02:45;;;;;;;4.30;2.83;;;;;;;12.88;73.51;102659.13;5004325;28;20186;-72
2022/08/06 06:05:12;;;;;;;6.13;2.45;;;;;;;12.97;74.11;102660.81;5004476;28;20026;-72
2022/08/06 06:07:39;;;;;;;4.25;2.50;;;;;;;13.05;73.80;102659.91;5006890;28;20128;-73
2022/08/06 06:10:06;;;;;;;5.53;2.67;;;;;;;13.12;73.86;102655.50;5005749;28;20026;-73
2022/08/06 06:12:33;;;;;;;4.72;2.72;;;;;;;13.21;73.58;102665.84;5007146;28;21015;-72
2022/08/06 06:15:00;;;;;;;4.53;2.40;;;;;;;13.29;73.24;102664.94;5011252;28;20515;-72
2022/08/06 06:17:37;;;;;;;4.28;2.50;;;;;;;13.36;72.63;102667.50;5008631;28;20046;-73
2022/08/06 06:20:18;;;;;;;5.15;2.45;;;;;;;13.44;72.18;102671.81;5010654;28;20425;-73
2022/08/06 06:22:59;;;;;;;4.53;2.35;;;;;;;13.50;71.98;102667.41;5010681;28;20061;-73
2022/08/06 06:25:48;;;;;;;4.30;2.10;;;;;;;13.61;71.53;102671.69;5009613;28;20033;-73
2022/08/06 06:28:21;;;;;;;7.10;2.45;;;;;;;13.68;72.23;102665.50;5011002;28;20201;-73
2022/08/06 06:31:03;;;;;;;4.70;2.50;;;;;;;13.75;72.11;102669.78;5007002;28;20540;-73
2022/08/06 06:33:31;;;;;;;3.30;2.40;;;;;;;13.81;72.03;102672.38;5007256;28;20061;-73
2022/08/06 06:36:00;;;;;;;4.75;2.10;;;;;;;13.89;72.40;102674.03;5009215;28;20049;-73
2022/08/06 06:38:38;;;;;;;5.15;2.08;;;;;;;13.95;71.78;102673.97;5007370;28;20363;-73
2022/08/06 06:41:26;;;;;;;5.43;2.17;;;;;;;14.02;71.55;102675.63;5009143;28;20433;-73
2022/08/06 06:44:00;;;;;;;4.57;2.03;;;;;;;14.09;71.44;102677.28;5007965;28;20557;-73
2022/08/06 06:46:51;;;;;;;7.32;2.10;;;;;;;14.19;70.68;102679.78;5006375;28;20124;-72
2022/08/06 06:49:34;;;;;;;7.25;2.13;;;;;;;14.29;70.49;102676.22;5009987;28;20115;-73
2022/08/06 06:52:07;;;;;;;5.20;1.95;;;;;;;14.36;70.55;102680.47;5009265;28;20025;-73
2022/08/06 06:54:38;;;;;;;3.55;2.00;;;;;;;14.45;70.86;102679.50;5008449;28;20030;-73
2022/08/06 06:57:06;;;;;;;6.90;2.00;;;;;;;14.53;68.84;102682.00;5008455;28;20033;-73
2022/08/06 06:59:37;;;;;;;4.13;1.90;;;;;;;14.61;69.39;102688.03;5007088;28;20034;-72
2022/08/06 07:02:05;;;;;;;3.13;1.83;;;;;;;14.69;69.99;102682.72;5007624;28;20025;-73
2022/08/06 07:04:31;;;;;;;4.03;1.73;;;;;;;14.78;69.00;102684.34;5009683;28;20029;-73
2022/08/06 07:06:59;;;;;;;3.38;1.75;;;;;;;14.86;69.14;102685.97;5009981;28;20500;-73
2022/08/06 07:09:28;;;;;;;4.05;1.90;;;;;;;14.96;69.00;102680.59;5009030;28;20038;-73
2022/08/06 07:11:56;;;;;;;4.07;1.70;;;;;;;15.03;69.12;102684.84;5009064;28;20022;-73
2022/08/06 07:14:23;;;;;;;3.58;1.48;;;;;;;15.11;67.54;102690.00;5011113;28;20116;-73
2022/08/06 07:16:51;;;;;;;4.28;1.67;;;;;;;15.18;66.10;102686.41;5005256;28;20676;-73
2022/08/06 07:19:18;;;;;;;2.97;1.35;;;;;;;15.24;66.13;102688.06;5003635;28;20112;-73
2022/08/06 07:21:45;;;;;;;2.97;1.33;;;;;;;15.28;65.34;102687.97;5010234;28;20696;-73
2022/08/06 07:24:12;;;;;;;3.50;1.40;;;;;;;15.35;65.06;102703.63;5009311;28;20052;-73
2022/08/06 07:26:41;;;;;;;4.20;1.40;;;;;;;15.40;64.86;102702.66;5008639;28;20064;-73
2022/08/06 07:29:09;;;;;;;3.38;1.30;;;;;;;15.47;64.65;102692.91;5008520;28;20033;-73
2022/08/06 07:31:35;;;;;;;4.07;1.40;;;;;;;15.53;63.89;102695.44;5007590;28;20041;-73
2022/08/06 07:34:01;;;;;;;2.95;1.23;;;;;;;15.59;64.59;102703.19;5006354;28;20037;-73
2022/08/06 07:36:31;;;;;;;2.50;1.30;;;;;;;15.68;64.51;102699.56;5007493;28;20825;-73
2022/08/06 07:39:03;;;;;;;2.92;1.20;;;;;;;15.77;64.73;102701.16;5009399;28;20025;-73
2022/08/06 07:41:29;;;;;;;2.40;1.00;;;;;;;15.83;62.40;102708.91;5009297;28;20030;-73
2022/08/06 07:43:58;;;;;;;2.95;1.02;;;;;;;15.86;61.64;102711.53;5010917;28;20072;-73
2022/08/06 07:46:28;;;;;;;2.97;0.93;;;;;;;15.90;59.66;102707.94;5011148;28;20041;-73
2022/08/06 07:48:57;;;;;;;2.25;0.70;;;;;;;15.92;59.64;102714.03;5007760;28;20022;-73
2022/08/06 07:51:29;;;;;;;3.10;0.75;;;;;;;15.97;60.80;102710.47;5006793;28;20034;-73
2022/08/06 07:53:55;;;;;;;3.42;1.10;;;;;;;16.03;61.36;102720.84;5006937;28;20548;-75
2022/08/06 07:56:21;;;;;;;1.92;1.00;;;;;;;16.07;61.79;102714.63;5009546;28;20155;-74
2022/08/06 07:58:48;;;;;;;2.40;1.10;;;;;;;16.15;60.98;102707.47;5007722;28;20075;-73
2022/08/06 08:01:14;;;;;;;2.95;1.00;;;;;;;16.21;59.25;102715.25;5005458;28;20041;-74
2022/08/06 08:06:28;;;;;;;3.22;1.00;;;;;;;16.32;59.46;102719.41;5009350;28;20132;-73
2022/08/06 08:09:03;;;;;;;4.57;1.15;;;;;;;16.42;60.08;102720.94;5006863;28;20373;-73
2022/08/06 08:11:30;;;;;;;3.20;1.13;;;;;;;16.50;58.89;102713.78;5010815;28;20032;-73
2022/08/06 08:13:58;;;;;;;2.47;1.00;;;;;;;16.57;58.09;102729.44;5010777;28;20029;-72
2022/08/06 08:16:26;;;;;;;3.85;1.13;;;;;;;16.61;57.40;102731.09;5014322;28;20018;-73
2022/08/06 08:18:51;;;;;;;4.50;1.13;;;;;;;16.60;58.30;102724.09;5011044;28;20499;-73
2022/08/06 08:21:19;;;;;;;2.10;0.98;;;;;;;16.67;59.35;102723.09;5013743;28;20029;-73
2022/08/06 08:23:46;;;;;;;1.83;0.80;;;;;;;16.76;57.01;102725.50;5011848;28;20538;-73
2022/08/06 08:26:11;;;;;;;2.03;0.80;;;;;;;16.79;56.84;102722.81;5009288;28;20041;-73
2022/08/06 08:28:36;;;;;;;1.75;0.90;;;;;;;16.80;57.07;102721.91;5012428;28;20076;-72
2022/08/06 08:31:03;;;;;;;2.42;1.20;;;;;;;16.81;57.81;102728.06;5016109;28;20029;-73
2022/08/06 08:33:29;;;;;;;3.13;1.10;;;;;;;16.87;58.47;102724.41;5012805;28;21334;-72
2022/08/06 08:35:55;;;;;;;2.97;1.20;;;;;;;16.97;56.21;102728.59;5014821;28;20175;-72
2022/08/06 08:38:21;;;;;;;4.53;1.83;;;;;;;17.00;55.84;102723.28;5012865;28;20061;-73
2022/08/06 08:40:49;;;;;;;2.63;1.42;;;;;;;17.03;56.36;102723.22;5013945;28;20041;-72
2022/08/06 08:43:22;;;;;;;1.70;1.05;;;;;;;17.09;55.06;102723.03;5013380;28;20033;-73
2022/08/06 08:45:50;;;;;;;2.47;1.00;;;;;;;17.16;55.50;102722.91;5013924;28;20617;-74
2022/08/06 08:48:22;;;;;;;3.80;1.10;;;;;;;17.24;55.63;102720.97;5014888;28;20026;-73
2022/08/06 08:50:49;;;;;;;4.10;1.30;;;;;;;17.32;57.19;102720.78;5016007;28;20065;-73
2022/08/06 08:53:33;;;;;;;1.63;0.98;;;;;;;17.37;54.09;102721.53;5011902;28;20035;-74
2022/08/06 08:55:59;;;;;;;2.33;1.00;;;;;;;17.40;55.63;102721.47;5008679;28;20033;-74
2022/08/06 08:58:25;;;;;;;2.92;0.90;;;;;;;17.42;52.43;102730.19;5007118;28;20073;-74
2022/08/06 09:00:50;;;;;;;1.70;0.88;;;;;;;17.47;53.39;102727.44;5016427;28;20469;-76
2022/08/06 09:03:16;;;;;;;1.35;0.88;;;;;;;17.52;52.32;102726.41;5008145;28;20052;-73
2022/08/06 09:05:41;;;;;;;2.17;0.70;;;;;;;17.60;52.72;102734.13;5009639;28;20029;-73
2022/08/06 09:08:09;;;;;;;5.22;0.93;;;;;;;17.66;52.74;102733.97;5018601;28;20266;-73
2022/08/06 09:10:35;;;;;;;1.98;0.80;;;;;;;17.72;52.58;102732.94;5016593;28;20108;-74
2022/08/06 09:13:01;;;;;;;1.55;0.70;;;;;;;17.78;53.14;102740.69;5017773;28;20156;-74
2022/08/06 09:15:26;;;;;;;1.70;0.60;;;;;;;17.81;51.46;102742.38;5015434;28;20037;-74
2022/08/06 09:17:51;;;;;;;3.83;1.08;;;;;;;17.86;51.33;102738.72;5014165;28;20022;-73
2022/08/06 09:20:17;;;;;;;1.02;0.70;;;;;;;17.91;51.76;102738.63;5017050;28;20642;-74
2022/08/06 09:22:50;;;;;;;2.78;0.70;;;;;;;17.98;50.43;102739.34;5016929;28;20033;-73
2022/08/06 09:25:51;;;;;;;2.80;0.80;;;;;;;18.02;52.84;102736.56;5016904;28;20029;-73
2022/08/06 09:28:41;;;;;;;4.20;0.80;;;;;;;18.04;52.52;102734.78;5017001;28;20030;-73
2022/08/06 09:31:12;;;;;;;0.85;0.52;;;;;;;18.08;52.31;102738.19;5007750;28;20287;-73
2022/08/06 09:33:40;;;;;;;1.70;0.70;;;;;;;18.09;48.48;102741.69;5026509;28;20589;-74
2022/08/06 09:36:08;;;;;;;1.77;0.70;;;;;;;18.11;51.47;102739.84;5011747;28;20053;-73
2022/08/06 09:38:54;;;;;;;1.38;0.68;;;;;;;18.19;52.67;102743.16;5018380;28;20041;-74
2022/08/06 09:41:22;;;;;;;2.75;0.73;;;;;;;18.22;49.17;102743.06;5013326;28;20026;-73
2022/08/06 09:43:50;;;;;;;1.38;0.63;;;;;;;18.17;49.81;102739.69;5010522;28;20124;-74
2022/08/06 09:46:17;;;;;;;2.30;0.80;;;;;;;18.21;51.04;102736.09;5012518;28;20081;-73
2022/08/06 09:48:59;;;;;;;2.35;0.70;;;;;;;18.27;51.10;102745.56;5015356;28;20033;-73
2022/08/06 09:51:25;;;;;;;1.40;0.80;;;;;;;18.32;49.02;102739.28;5006830;28;20140;-74
2022/08/06 09:53:54;;;;;;;2.00;0.60;;;;;;;18.40;50.91;102748.75;5010740;28;20116;-74
2022/08/06 09:56:19;;;;;;;1.50;0.63;;;;;;;18.46;49.67;102745.91;5014704;28;20121;-74
2022/08/06 09:58:45;;;;;;;1.35;0.75;;;;;;;18.52;49.50;102751.00;5018057;28;20029;-73
2022/08/06 10:01:22;;;;;;;1.67;0.60;;;;;;;18.54;49.92;102757.13;5016694;28;20477;-74
2022/08/06 10:03:49;;;;;;;3.50;1.00;;;;;;;18.55;49.28;102747.41;5011610;28;20025;-73
2022/08/06 10:06:21;;;;;;;1.55;0.70;;;;;;;18.56;50.01;102749.16;5014483;28;20099;-74
2022/08/06 10:09:07;;;;;;;2.50;0.80;;;;;;;18.56;49.73;102746.50;5001262;28;20481;-73
2022/08/06 10:11:36;;;;;;;0.90;0.60;;;;;;;18.55;49.66;102750.94;5012086;28;20196;-74
2022/08/06 10:14:02;;;;;;;3.70;0.70;;;;;;;18.55;46.73;102750.06;5012746;28;20040;-74
2022/08/06 10:16:28;;;;;;;1.17;0.65;;;;;;;18.53;47.14;102744.00;5009521;28;20060;-73
2022/08/06 10:18:53;;;;;;;1.13;0.63;;;;;;;18.53;48.12;102742.19;5009962;28;20040;-73
2022/08/06 10:21:25;;;;;;;0.73;0.50;;;;;;;18.57;49.19;102738.56;5009266;28;20034;-73
2022/08/06 10:23:53;;;;;;;2.17;0.82;;;;;;;18.61;45.84;102737.59;5015959;28;20075;-73
2022/08/06 10:26:28;;;;;;;1.20;0.60;;;;;;;18.68;47.36;102734.75;5008125;28;20664;-74
2022/08/06 10:29:00;;;;;;;3.15;0.70;;;;;;;18.76;48.01;102738.03;5007902;28;20034;-73
2022/08/06 10:31:26;;;;;;;1.70;0.80;;;;;;;18.81;47.07;102736.09;5002136;28;20113;-74
2022/08/06 10:33:57;;;;;;;1.52;0.50;;;;;;;18.84;46.87;102730.75;5011399;28;20108;-74
2022/08/06 10:36:34;;;;;;;1.63;0.60;;;;;;;18.84;47.02;102729.88;5007513;28;20057;-74
2022/08/06 10:38:59;;;;;;;3.13;0.77;;;;;;;18.81;46.90;102725.56;5011560;28;20034;-74
2022/08/06 10:41:26;;;;;;;1.83;0.60;;;;;;;18.80;46.41;102722.06;5007348;28;20042;-74
2022/08/06 10:43:53;;;;;;;0.77;0.60;;;;;;;18.79;46.97;102722.09;5010523;28;20152;-73
2022/08/06 10:46:19;;;;;;;1.13;0.60;;;;;;;18.80;43.85;102721.19;5007891;28;20081;-76
2022/08/06 10:48:46;;;;;;;1.17;0.70;;;;;;;18.80;43.16;102718.56;5005867;28;20029;-74
2022/08/06 10:51:13;;;;;;;2.00;0.70;;;;;;;18.81;44.28;102717.66;5003063;28;20034;-74
2022/08/06 10:53:41;;;;;;;0.60;0.50;;;;;;;18.83;44.99;102717.63;5012540;28;20116;-74
2022/08/06 10:56:08;;;;;;;2.10;0.70;;;;;;;18.84;44.47;102717.56;5007495;28;20033;-74
2022/08/06 10:58:35;;;;;;;1.95;0.63;;;;;;;18.91;46.62;102716.47;4999784;28;20109;-74
2022/08/06 11:01:05;;;;;;;1.33;0.70;;;;;;;18.96;47.27;102711.91;4997487;28;20112;-74
2022/08/06 11:04:12;;;;;;;1.27;0.60;;;;;;;19.04;46.32;102721.38;5003467;28;20021;-74
2022/08/06 11:06:53;;;;;;;1.05;0.60;;;;;;;19.11;46.58;102715.88;5009910;28;20045;-74
2022/08/06 11:09:36;;;;;;;0.95;0.50;;;;;;;19.14;45.34;102712.25;5012582;28;20566;-74
2022/08/06 11:12:18;;;;;;;0.50;0.50;;;;;;;19.21;46.03;102713.78;5009679;28;20205;-74
2022/08/06 11:14:44;;;;;;;;;;;;;;;19.27;46.71;102702.16;5015004;28;20053;-74
2022/08/06 11:17:10;;;;;;;1.58;0.60;;;;;;;19.28;41.37;102708.31;5012162;28;19921;-74
2022/08/06 11:19:43;;;;;;;1.55;0.70;;;;;;;19.31;42.33;102708.19;5012572;28;20559;-74
2022/08/06 11:22:36;;;;;;;1.10;0.63;;;;;;;19.34;44.15;102702.81;5008409;28;20041;-74
2022/08/06 11:25:04;;;;;;;0.50;0.40;;;;;;;19.35;48.45;102704.56;5010436;28;20384;-74
2022/08/06 11:27:52;;;;;;;0.75;0.50;;;;;;;19.38;47.14;102702.69;5012478;28;21630;-74
2022/08/06 11:30:19;;;;;;;1.23;0.50;;;;;;;19.31;41.52;102709.09;5011454;28;20111;-74
2022/08/06 11:32:45;;;;;;;1.40;0.50;;;;;;;19.25;43.56;102699.59;5012565;28;20495;-74
2022/08/06 11:35:35;;;;;;;1.15;0.50;;;;;;;19.27;45.14;102704.81;5012729;28;20091;-74
2022/08/06 11:38:02;;;;;;;0.60;0.50;;;;;;;19.33;41.39;102699.34;5011387;28;20057;-74
2022/08/06 11:40:28;;;;;;;1.33;0.50;;;;;;;19.44;42.70;102695.47;5010619;28;20030;-74